createdAt,value
2022-10-30T00:01:28.235Z,23.33
2022-10-30T00:03:57.214Z,20.20
2022-10-30T00:06:26.206Z,19.33
2022-10-30T00:08:55.187Z,16.95
2022-10-30T00:11:24.184Z,21.45
2022-10-30T00:13:53.146Z,18.67
2022-10-30T00:16:23.603Z,23.05
2022-10-30T00:18:52.629Z,22.20
2022-10-30T00:21:21.900Z,20.33
2022-10-30T00:23:52.550Z,22.77
2022-10-30T00:26:22.928Z,24.08
2022-10-30T00:28:52.111Z,23.73
2022-10-30T00:31:21.834Z,25.50
2022-10-30T00:33:53.522Z,27.73
2022-10-30T00:36:23.898Z,23.35
2022-10-30T00:38:52.917Z,29.58
2022-10-30T00:41:25.245Z,24.70
2022-10-30T00:46:28.322Z,28.10
2022-10-30T00:49:03.406Z,21.90
2022-10-30T00:51:34.481Z,23.60
2022-10-30T00:54:06.807Z,24.45
2022-10-30T00:56:36.795Z,23.50
2022-10-30T00:59:10.934Z,23.98
2022-10-30T01:01:46.767Z,28.10
2022-10-30T01:04:19.015Z,22.45
2022-10-30T01:06:52.138Z,26.48
2022-10-30T01:09:21.468Z,26.45
2022-10-30T01:11:50.632Z,24.88
2022-10-30T01:14:22.603Z,31.67
2022-10-30T01:17:07.494Z,25.63
2022-10-30T01:19:47.687Z,24.15
2022-10-30T01:22:36.211Z,31.50
2022-10-30T01:25:15.539Z,22.67
2022-10-30T01:28:01.778Z,28.80
2022-10-30T01:30:43.077Z,27.00
2022-10-30T01:33:23.561Z,24.25
2022-10-30T01:36:03.237Z,25.02
2022-10-30T01:38:40.701Z,27.45
2022-10-30T01:41:10.425Z,22.25
2022-10-30T01:43:40.542Z,24.90
2022-10-30T01:46:36.737Z,20.55
2022-10-30T01:49:32.978Z,24.67
2022-10-30T01:52:14.530Z,24.30
2022-10-30T01:57:23.706Z,26.08
2022-10-30T02:00:00.401Z,26.45
2022-10-30T02:02:29.829Z,26.20
2022-10-30T02:04:59.121Z,20.52
2022-10-30T02:07:30.457Z,29.55
2022-10-30T02:09:59.709Z,29.83
2022-10-30T02:12:30.931Z,27.25
2022-10-30T02:15:02.901Z,25.73
2022-10-30T02:17:32.139Z,19.13
2022-10-30T02:20:01.251Z,26.90
2022-10-30T02:22:33.358Z,20.77
2022-10-30T02:25:02.603Z,30.35
2022-10-30T02:27:31.902Z,21.55
2022-10-30T02:30:01.476Z,25.95
2022-10-30T02:32:30.668Z,21.50
2022-10-30T02:34:59.980Z,26.85
2022-10-30T02:37:35.751Z,31.85
2022-10-30T02:40:06.033Z,34.65
2022-10-30T02:42:35.085Z,30.88
2022-10-30T02:45:04.144Z,27.40
2022-10-30T02:47:36.238Z,29.45
2022-10-30T02:50:05.726Z,30.60
2022-10-30T02:52:39.046Z,23.02
2022-10-30T02:55:08.582Z,24.80
2022-10-30T02:57:39.578Z,22.67
2022-10-30T03:00:09.624Z,22.90
2022-10-30T03:02:38.791Z,24.33
2022-10-30T03:05:08.318Z,28.60
2022-10-30T03:07:38.716Z,25.10
2022-10-30T03:10:08.292Z,20.60
2022-10-30T03:12:37.966Z,24.00
2022-10-30T03:15:07.877Z,22.85
2022-10-30T03:17:37.940Z,22.60
2022-10-30T03:20:08.092Z,23.35
2022-10-30T03:22:38.643Z,22.05
2022-10-30T03:25:08.190Z,21.67
2022-10-30T03:27:37.224Z,23.67
2022-10-30T03:30:07.049Z,25.20
2022-10-30T03:32:36.296Z,17.52
2022-10-30T03:35:05.997Z,22.38
2022-10-30T03:37:35.120Z,19.48
2022-10-30T03:40:06.979Z,20.45
2022-10-30T03:42:40.498Z,26.88
2022-10-30T03:45:11.441Z,20.90
2022-10-30T03:47:41.471Z,15.85
2022-10-30T03:50:11.730Z,12.40
2022-10-30T03:52:41.376Z,14.90
2022-10-30T03:55:12.129Z,17.55
2022-10-30T03:57:43.824Z,15.77
2022-10-30T04:00:18.696Z,29.20
2022-10-30T04:03:00.684Z,19.65
2022-10-30T04:05:32.144Z,26.80
2022-10-30T04:08:02.926Z,24.40
2022-10-30T04:10:38.218Z,32.25
2022-10-30T04:13:13.059Z,29.90
2022-10-30T04:15:56.410Z,23.45
2022-10-30T04:18:27.555Z,29.23
2022-10-30T04:20:57.232Z,33.70
2022-10-30T04:23:26.371Z,28.60
2022-10-30T04:25:57.491Z,29.30
2022-10-30T04:28:26.915Z,20.95
2022-10-30T04:30:55.943Z,29.88
2022-10-30T04:33:24.940Z,22.83
2022-10-30T04:35:54.894Z,30.20
2022-10-30T04:38:24.236Z,21.60
2022-10-30T04:40:53.544Z,29.08
2022-10-30T04:43:24.018Z,19.20
2022-10-30T04:45:54.672Z,22.80
2022-10-30T04:48:23.659Z,24.30
2022-10-30T04:50:52.620Z,18.75
2022-10-30T04:53:26.042Z,25.48
2022-10-30T04:56:02.053Z,23.52
2022-10-30T04:58:34.463Z,23.92
2022-10-30T05:01:08.136Z,20.77
2022-10-30T05:06:21.007Z,18.27
2022-10-30T05:08:50.128Z,12.43
2022-10-30T05:11:40.306Z,7.97
2022-10-30T05:14:11.708Z,12.50
2022-10-30T05:16:40.749Z,6.38
2022-10-30T05:19:10.199Z,8.35
2022-10-30T05:21:40.073Z,5.85
2022-10-30T05:24:09.985Z,5.80
2022-10-30T05:26:46.246Z,5.57
2022-10-30T05:29:16.824Z,3.80
2022-10-30T05:31:46.657Z,3.65
2022-10-30T05:34:19.007Z,3.10
2022-10-30T05:36:52.379Z,1.92
2022-10-30T05:39:22.755Z,0.70
2022-10-30T05:41:53.702Z,3.22
2022-10-30T05:44:47.419Z,5.18
2022-10-30T05:47:18.869Z,2.75
2022-10-30T05:49:52.777Z,2.40
2022-10-30T05:52:24.339Z,3.40
2022-10-30T05:54:54.068Z,2.58
2022-10-30T05:57:33.195Z,2.58
2022-10-30T06:00:05.245Z,4.57
2022-10-30T06:02:44.449Z,2.03
2022-10-30T06:07:45.062Z,2.72
2022-10-30T06:10:14.632Z,2.25
2022-10-30T06:13:05.525Z,3.15
2022-10-30T06:15:57.466Z,1.95
2022-10-30T06:18:33.069Z,1.17
2022-10-30T06:21:10.783Z,7.88
2022-10-30T06:24:18.091Z,3.17
2022-10-30T06:27:02.016Z,6.97
2022-10-30T06:29:31.545Z,3.75
2022-10-30T06:32:05.558Z,5.15
2022-10-30T06:34:36.440Z,6.70
2022-10-30T06:37:05.580Z,8.25
2022-10-30T06:39:34.671Z,7.97
2022-10-30T06:42:29.797Z,11.02
2022-10-30T06:45:11.606Z,9.50
2022-10-30T06:47:42.493Z,12.63
2022-10-30T06:50:13.920Z,7.82
2022-10-30T06:55:12.661Z,9.90
2022-10-30T06:57:57.161Z,7.38
2022-10-30T07:00:52.936Z,10.90
2022-10-30T07:03:38.020Z,7.50
2022-10-30T07:06:07.713Z,9.67
2022-10-30T07:08:37.150Z,8.65
2022-10-30T07:11:06.634Z,6.15
2022-10-30T07:13:50.550Z,9.35
2022-10-30T07:16:44.528Z,6.38
2022-10-30T07:19:19.565Z,9.98
2022-10-30T07:21:48.753Z,9.77
2022-10-30T07:24:19.285Z,10.57
2022-10-30T07:27:08.478Z,8.35
2022-10-30T07:29:45.516Z,10.65
2022-10-30T07:32:29.170Z,14.15
2022-10-30T07:35:35.234Z,12.73
2022-10-30T07:38:35.236Z,7.38
2022-10-30T07:41:20.140Z,6.55
2022-10-30T07:43:52.305Z,15.43
2022-10-30T07:46:39.906Z,17.40
2022-10-30T07:49:35.887Z,12.25
2022-10-30T07:52:14.492Z,13.05
2022-10-30T07:54:46.642Z,12.23
2022-10-30T07:57:48.082Z,15.85
2022-10-30T08:00:36.002Z,17.23
2022-10-30T08:03:14.876Z,12.00
2022-10-30T08:06:10.585Z,10.30
2022-10-30T08:08:43.377Z,17.90
2022-10-30T08:11:24.126Z,10.93
2022-10-30T08:13:55.099Z,15.95
2022-10-30T08:16:25.516Z,14.23
2022-10-30T08:18:54.983Z,17.27
2022-10-30T08:21:27.152Z,40.97
2022-10-30T08:24:03.537Z,12.80
2022-10-30T08:26:35.461Z,10.82
2022-10-30T08:29:04.894Z,18.02
2022-10-30T08:31:34.323Z,15.77
2022-10-30T08:34:06.589Z,15.68
2022-10-30T08:36:50.235Z,20.02
2022-10-30T08:39:21.145Z,20.38
2022-10-30T08:42:02.138Z,16.30
2022-10-30T08:44:39.702Z,17.67
2022-10-30T08:50:00.095Z,23.10
2022-10-30T08:52:31.708Z,14.73
2022-10-30T08:55:02.289Z,19.52
2022-10-30T08:57:37.897Z,16.13
2022-10-30T09:00:08.388Z,12.85
2022-10-30T09:02:56.519Z,17.02
2022-10-30T09:05:34.876Z,17.23
2022-10-30T09:08:35.962Z,20.55
2022-10-30T09:11:06.854Z,12.00
2022-10-30T09:13:43.653Z,20.55
2022-10-30T09:16:14.034Z,24.58
2022-10-30T09:18:43.402Z,15.90
2022-10-30T09:21:12.657Z,18.60
2022-10-30T09:23:47.664Z,18.85
2022-10-30T09:26:44.361Z,17.20
2022-10-30T09:29:31.250Z,15.27
2022-10-30T09:32:10.087Z,18.90
2022-10-30T09:34:57.661Z,21.50
2022-10-30T09:40:01.757Z,17.38
2022-10-30T09:42:45.838Z,14.68
2022-10-30T09:45:56.531Z,17.08
2022-10-30T09:48:56.647Z,16.35
2022-10-30T09:51:54.138Z,11.75
2022-10-30T09:54:37.208Z,17.60
2022-10-30T09:57:14.255Z,12.82
2022-10-30T09:59:58.984Z,14.38
2022-10-30T10:02:36.554Z,14.40
2022-10-30T10:05:18.505Z,13.23
2022-10-30T10:08:19.580Z,13.43
2022-10-30T10:11:15.350Z,13.30
2022-10-30T10:13:51.096Z,14.90
2022-10-30T10:16:24.537Z,12.60
2022-10-30T10:18:58.592Z,15.13
2022-10-30T10:21:29.249Z,15.15
2022-10-30T10:24:00.904Z,12.70
2022-10-30T10:26:32.414Z,12.38
2022-10-30T10:29:16.257Z,14.30
2022-10-30T10:31:52.512Z,12.05
2022-10-30T10:34:53.713Z,18.38
2022-10-30T10:37:32.110Z,9.50
2022-10-30T10:40:27.577Z,10.48
2022-10-30T10:43:11.393Z,16.10
2022-10-30T10:45:49.920Z,14.52
2022-10-30T10:48:39.456Z,12.43
2022-10-30T10:51:12.122Z,9.20
2022-10-30T10:53:46.418Z,19.83
2022-10-30T10:56:15.962Z,12.38
2022-10-30T10:58:53.207Z,15.88
2022-10-30T11:01:25.888Z,14.00
2022-10-30T11:04:01.253Z,15.98
2022-10-30T11:06:33.922Z,12.15
2022-10-30T11:09:16.584Z,14.02
2022-10-30T11:11:46.103Z,14.30
2022-10-30T11:14:18.658Z,14.82
2022-10-30T11:17:05.148Z,13.70
2022-10-30T11:19:35.541Z,7.50
2022-10-30T11:22:11.112Z,14.13
2022-10-30T11:24:40.097Z,12.40
2022-10-30T11:27:25.830Z,9.32
2022-10-30T11:29:58.376Z,9.30
2022-10-30T11:32:29.330Z,7.68
2022-10-30T11:35:14.317Z,7.20
2022-10-30T11:37:45.678Z,11.30
2022-10-30T11:42:50.860Z,12.88
2022-10-30T11:45:25.161Z,13.20
2022-10-30T11:47:58.142Z,10.48
2022-10-30T11:50:33.551Z,10.77
2022-10-30T11:53:04.529Z,9.43
2022-10-30T11:55:39.225Z,10.07
2022-10-30T11:58:10.032Z,11.75
2022-10-30T12:00:41.758Z,10.93
2022-10-30T12:03:29.746Z,16.08
2022-10-30T12:06:19.558Z,13.10
2022-10-30T12:09:04.781Z,12.38
2022-10-30T12:11:35.497Z,8.43
2022-10-30T12:14:05.580Z,8.82
2022-10-30T12:16:34.980Z,7.30
2022-10-30T12:19:07.226Z,5.32
2022-10-30T12:21:41.113Z,12.32
2022-10-30T12:24:19.360Z,7.78
2022-10-30T12:26:51.253Z,6.10
2022-10-30T12:29:24.303Z,5.30
2022-10-30T12:31:59.770Z,9.50
2022-10-30T12:34:40.027Z,4.18
2022-10-30T12:37:17.144Z,4.82
2022-10-30T12:39:56.805Z,6.55
2022-10-30T12:42:26.731Z,4.55
2022-10-30T12:45:08.880Z,6.38
2022-10-30T12:47:44.951Z,8.35
2022-10-30T12:50:20.989Z,7.07
2022-10-30T12:52:58.221Z,6.40
2022-10-30T12:55:33.133Z,3.60
2022-10-30T12:58:10.454Z,7.07
2022-10-30T13:00:45.682Z,4.75
2022-10-30T13:03:25.963Z,7.18
2022-10-30T13:05:57.457Z,6.22
2022-10-30T13:08:35.676Z,9.80
2022-10-30T13:11:10.849Z,4.88
2022-10-30T13:13:43.539Z,5.30
2022-10-30T13:16:17.371Z,8.60
2022-10-30T13:18:46.492Z,10.13
2022-10-30T13:21:23.110Z,5.07
2022-10-30T13:24:00.174Z,5.50
2022-10-30T13:26:37.786Z,3.97
2022-10-30T13:29:14.974Z,5.30
2022-10-30T13:31:52.799Z,4.82
2022-10-30T13:34:36.694Z,7.60
2022-10-30T13:37:13.695Z,6.85
2022-10-30T13:39:49.772Z,6.75
2022-10-30T13:42:31.871Z,4.55
2022-10-30T13:45:24.997Z,3.38
2022-10-30T13:48:08.765Z,5.25
2022-10-30T13:50:49.811Z,3.05
2022-10-30T13:53:25.156Z,5.63
2022-10-30T13:55:57.125Z,5.60
2022-10-30T13:58:32.427Z,3.40
2022-10-30T14:01:08.123Z,5.15
2022-10-30T14:03:49.805Z,6.93
2022-10-30T14:06:27.662Z,6.40
2022-10-30T14:09:07.674Z,2.72
2022-10-30T14:11:38.084Z,5.20
2022-10-30T14:14:25.089Z,4.65
2022-10-30T14:17:14.836Z,7.15
2022-10-30T14:20:21.181Z,6.53
2022-10-30T14:23:09.217Z,4.10
2022-10-30T14:25:38.321Z,3.53
2022-10-30T14:28:21.244Z,2.35
2022-10-30T14:31:03.606Z,4.03
2022-10-30T14:33:42.842Z,4.00
2022-10-30T14:36:20.195Z,2.35
2022-10-30T14:39:00.025Z,3.78
2022-10-30T14:41:46.272Z,3.45
2022-10-30T14:44:44.363Z,3.47
2022-10-30T14:47:35.295Z,2.05
2022-10-30T14:50:16.975Z,3.80
2022-10-30T14:53:02.042Z,2.80
2022-10-30T14:55:35.039Z,2.47
2022-10-30T14:58:20.571Z,3.35
2022-10-30T15:00:51.984Z,2.15
2022-10-30T15:03:37.254Z,2.55
2022-10-30T15:06:19.224Z,3.10
2022-10-30T15:09:11.544Z,3.15
2022-10-30T15:12:15.499Z,3.70
2022-10-30T15:14:53.891Z,4.63
2022-10-30T15:17:34.166Z,4.50
2022-10-30T15:20:08.069Z,2.13
2022-10-30T15:22:37.588Z,3.78
2022-10-30T15:25:15.089Z,4.85
2022-10-30T15:27:46.356Z,2.70
2022-10-30T15:30:20.963Z,5.38
2022-10-30T15:32:51.805Z,3.53
2022-10-30T15:35:23.170Z,5.10
2022-10-30T15:40:28.234Z,3.92
2022-10-30T15:42:59.558Z,3.53
2022-10-30T15:45:34.747Z,4.93
2022-10-30T15:48:09.133Z,3.00
2022-10-30T15:50:44.218Z,3.42
2022-10-30T15:53:19.753Z,7.03
2022-10-30T15:55:50.122Z,4.57
2022-10-30T15:58:23.419Z,2.92
2022-10-30T16:00:59.882Z,3.95
2022-10-30T16:03:31.006Z,7.47
2022-10-30T16:06:18.208Z,4.30
2022-10-30T16:08:48.428Z,5.93
2022-10-30T16:11:18.099Z,6.88
2022-10-30T16:13:47.124Z,6.07
2022-10-30T16:16:22.254Z,4.82
2022-10-30T16:18:53.389Z,6.65
2022-10-30T16:21:24.963Z,9.77
2022-10-30T16:23:56.217Z,8.82
2022-10-30T16:26:32.937Z,6.85
2022-10-30T16:29:09.058Z,10.48
2022-10-30T16:31:39.119Z,7.50
2022-10-30T16:34:14.561Z,8.98
2022-10-30T16:36:43.903Z,11.27
2022-10-30T16:39:16.680Z,7.72
2022-10-30T16:41:46.308Z,10.70
2022-10-30T16:44:26.559Z,8.43
2022-10-30T16:46:58.071Z,9.07
2022-10-30T16:49:31.158Z,9.48
2022-10-30T16:52:03.680Z,8.80
2022-10-30T16:54:36.999Z,12.50
2022-10-30T16:57:16.286Z,12.15
2022-10-30T16:59:49.451Z,13.32
2022-10-30T17:02:21.029Z,9.65
2022-10-30T17:04:57.998Z,14.02
2022-10-30T17:07:28.940Z,12.88
2022-10-30T17:09:58.649Z,14.55
2022-10-30T17:12:30.151Z,9.68
2022-10-30T17:15:12.854Z,17.23
2022-10-30T17:17:43.711Z,10.98
2022-10-30T17:20:31.039Z,13.32
2022-10-30T17:23:18.988Z,14.23
2022-10-30T17:25:49.104Z,20.60
2022-10-30T17:28:30.760Z,14.30
2022-10-30T17:31:20.480Z,18.55
2022-10-30T17:34:05.098Z,15.57
2022-10-30T17:36:35.673Z,14.60
2022-10-30T17:39:05.086Z,12.52
2022-10-30T17:41:34.339Z,18.23
2022-10-30T17:44:04.235Z,12.00
2022-10-30T17:46:33.504Z,15.18
2022-10-30T17:49:03.081Z,19.63
2022-10-30T17:51:32.519Z,13.88
2022-10-30T17:54:03.494Z,14.95
2022-10-30T17:56:35.394Z,19.55
2022-10-30T17:59:04.814Z,20.55
2022-10-30T18:01:34.606Z,16.58
2022-10-30T18:04:06.467Z,15.07
2022-10-30T18:06:36.073Z,21.25
2022-10-30T18:09:06.699Z,18.05
2022-10-30T18:11:36.098Z,15.30
2022-10-30T18:14:06.487Z,17.08
2022-10-30T18:16:35.733Z,15.68
2022-10-30T18:19:05.010Z,13.38
2022-10-30T18:21:34.236Z,19.83
2022-10-30T18:24:03.277Z,21.02
2022-10-30T18:26:40.202Z,13.20
2022-10-30T18:29:10.391Z,16.15
2022-10-30T18:31:40.150Z,18.55
2022-10-30T18:34:16.507Z,17.67
2022-10-30T18:36:49.761Z,15.70
2022-10-30T18:39:18.860Z,17.40
2022-10-30T18:41:50.209Z,16.00
2022-10-30T18:44:20.753Z,13.63
2022-10-30T18:46:49.875Z,20.58
2022-10-30T18:49:22.524Z,19.80
2022-10-30T18:51:51.701Z,18.80
2022-10-30T18:54:20.729Z,20.33
2022-10-30T18:56:51.366Z,20.05
2022-10-30T18:59:20.874Z,15.80
2022-10-30T19:01:50.205Z,17.70
2022-10-30T19:04:22.651Z,18.40
2022-10-30T19:06:52.245Z,16.98
2022-10-30T19:09:21.302Z,22.00
2022-10-30T19:11:51.684Z,22.70
2022-10-30T19:14:21.027Z,22.17
2022-10-30T19:16:50.120Z,22.80
2022-10-30T19:19:19.232Z,23.60
2022-10-30T19:21:48.242Z,25.85
2022-10-30T19:24:20.310Z,21.17
2022-10-30T19:26:49.439Z,21.40
2022-10-30T19:29:19.821Z,18.90
2022-10-30T19:31:49.282Z,20.63
2022-10-30T19:34:18.384Z,19.73
2022-10-30T19:36:47.410Z,20.45
2022-10-30T19:39:17.875Z,18.88
2022-10-30T19:41:47.214Z,62.10
2022-10-30T19:44:16.316Z,19.77
2022-10-30T19:46:46.800Z,20.02
2022-10-30T19:49:20.509Z,25.97
2022-10-30T19:51:50.109Z,18.42
2022-10-30T19:54:19.151Z,14.55
2022-10-30T19:56:48.205Z,21.88
2022-10-30T19:59:17.344Z,12.82
2022-10-30T20:01:48.262Z,25.20
2022-10-30T20:04:17.449Z,13.68
2022-10-30T20:06:46.494Z,18.73
2022-10-30T20:09:15.555Z,17.45
2022-10-30T20:11:44.885Z,17.20
2022-10-30T20:14:14.421Z,19.05
2022-10-30T20:16:43.757Z,15.82
2022-10-30T20:19:28.548Z,17.35
2022-10-30T20:21:57.926Z,23.33
2022-10-30T20:24:27.358Z,15.68
2022-10-30T20:26:57.866Z,15.45
2022-10-30T20:29:27.339Z,12.80
2022-10-30T20:31:56.638Z,10.15
2022-10-30T20:34:27.337Z,14.85
2022-10-30T20:36:56.560Z,13.88
2022-10-30T20:39:25.912Z,11.77
2022-10-30T20:41:55.214Z,11.27
2022-10-30T20:44:24.806Z,15.00
2022-10-30T20:46:53.870Z,37.72
2022-10-30T20:49:27.377Z,13.38
2022-10-30T20:51:58.191Z,14.25
2022-10-30T20:54:27.561Z,14.25
2022-10-30T20:56:56.690Z,13.55
2022-10-30T20:59:25.988Z,13.80
2022-10-30T21:01:56.072Z,13.50
2022-10-30T21:04:25.413Z,15.85
2022-10-30T21:06:54.747Z,19.38
2022-10-30T21:09:25.456Z,24.92
2022-10-30T21:11:54.682Z,19.25
2022-10-30T21:14:23.762Z,18.80
2022-10-30T21:16:52.748Z,19.90
2022-10-30T21:19:21.815Z,17.08
2022-10-30T21:21:50.974Z,15.07
2022-10-30T21:24:20.054Z,26.92
2022-10-30T21:26:50.597Z,23.50
2022-10-30T21:29:19.834Z,16.55
2022-10-30T21:31:48.952Z,22.52
2022-10-30T21:34:18.520Z,24.23
2022-10-30T21:36:53.319Z,21.10
2022-10-30T21:39:22.526Z,22.23
2022-10-30T21:41:53.504Z,16.70
2022-10-30T21:44:22.506Z,16.65
2022-10-30T21:46:51.800Z,21.27
2022-10-30T21:49:21.502Z,23.00
2022-10-30T21:51:50.831Z,25.10
2022-10-30T21:54:20.681Z,19.80
2022-10-30T21:56:50.150Z,26.60
2022-10-30T21:59:20.583Z,23.02
2022-10-30T22:01:49.749Z,31.03
2022-10-30T22:04:19.756Z,24.35
2022-10-30T22:06:48.871Z,25.00
2022-10-30T22:09:19.213Z,22.65
2022-10-30T22:11:48.372Z,25.80
2022-10-30T22:14:17.400Z,22.25
2022-10-30T22:16:49.485Z,17.83
2022-10-30T22:19:18.587Z,20.13
2022-10-30T22:21:47.827Z,22.30
2022-10-30T22:24:17.968Z,29.75
2022-10-30T22:26:47.508Z,20.77
2022-10-30T22:29:16.716Z,18.02
2022-10-30T22:31:47.103Z,28.05
2022-10-30T22:34:16.137Z,24.63
2022-10-30T22:36:45.227Z,23.55
2022-10-30T22:39:15.226Z,21.48
2022-10-30T22:41:44.220Z,24.35
2022-10-30T22:44:17.419Z,17.50
2022-10-30T22:46:48.058Z,21.52
2022-10-30T22:49:17.802Z,21.38
2022-10-30T22:51:46.778Z,15.27
2022-10-30T22:54:15.830Z,21.27
2022-10-30T22:56:44.822Z,17.88
2022-10-30T22:59:14.686Z,21.95
2022-10-30T23:01:44.226Z,16.27
2022-10-30T23:04:16.129Z,17.58
2022-10-30T23:06:45.605Z,19.48
2022-10-30T23:09:18.592Z,21.55
2022-10-30T23:11:50.157Z,18.17
2022-10-30T23:14:19.517Z,23.45
2022-10-30T23:16:48.698Z,18.52
2022-10-30T23:19:19.306Z,23.60
2022-10-30T23:21:48.319Z,18.35
2022-10-30T23:24:18.733Z,24.38
2022-10-30T23:26:47.854Z,24.40
2022-10-30T23:29:17.195Z,19.27
2022-10-30T23:31:47.181Z,19.70
2022-10-30T23:34:19.258Z,20.55
2022-10-30T23:36:48.354Z,22.63
2022-10-30T23:39:19.334Z,17.42
2022-10-30T23:41:48.475Z,20.58
2022-10-30T23:44:18.031Z,23.17
2022-10-30T23:46:47.251Z,20.70
2022-10-30T23:49:16.692Z,18.25
2022-10-30T23:51:47.474Z,20.88
2022-10-30T23:54:19.036Z,26.40
2022-10-30T23:56:48.286Z,20.67
2022-10-30T23:59:17.342Z,26.33
